createdAt,value
2022-10-01T00:00:05.617Z,15.57
2022-10-01T00:02:32.323Z,14.93
2022-10-01T00:04:59.039Z,13.43
2022-10-01T00:07:26.270Z,16.75
2022-10-01T00:09:52.944Z,15.02
2022-10-01T00:12:19.587Z,13.70
2022-10-01T00:14:46.281Z,14.18
2022-10-01T00:17:12.949Z,15.25
2022-10-01T00:19:39.582Z,17.67
2022-10-01T00:22:06.213Z,16.55
2022-10-01T00:24:33.714Z,17.88
2022-10-01T00:27:00.597Z,17.98
2022-10-01T00:29:27.325Z,18.90
2022-10-01T00:31:54.024Z,18.95
2022-10-01T00:34:20.812Z,18.55
2022-10-01T00:36:47.930Z,18.63
2022-10-01T00:39:14.935Z,19.05
2022-10-01T00:41:41.908Z,19.40
2022-10-01T00:44:35.455Z,20.35
2022-10-01T00:49:34.946Z,18.55
2022-10-01T00:52:05.444Z,18.63
2022-10-01T00:54:38.326Z,18.48
2022-10-01T00:57:07.181Z,19.00
2022-10-01T00:59:34.264Z,19.73
2022-10-01T01:02:01.125Z,20.13
2022-10-01T01:04:29.245Z,17.65
2022-10-01T01:07:01.269Z,16.33
2022-10-01T01:09:37.217Z,19.13
2022-10-01T01:12:10.000Z,18.13
2022-10-01T01:14:39.630Z,19.20
2022-10-01T01:17:12.646Z,16.55
2022-10-01T01:19:54.232Z,17.63
2022-10-01T01:22:22.112Z,17.55
2022-10-01T01:24:59.424Z,18.48
2022-10-01T01:27:54.326Z,17.65
2022-10-01T01:30:21.248Z,19.42
2022-10-01T01:32:51.530Z,18.20
2022-10-01T01:35:33.687Z,18.95
2022-10-01T01:38:08.572Z,15.70
2022-10-01T01:40:37.506Z,16.15
2022-10-01T01:43:07.287Z,20.25
2022-10-01T01:45:35.696Z,18.83
2022-10-01T01:48:03.108Z,19.50
2022-10-01T01:50:33.862Z,20.38
2022-10-01T01:53:00.946Z,19.85
2022-10-01T01:55:30.050Z,20.23
2022-10-01T01:57:57.447Z,19.13
2022-10-01T02:00:24.202Z,17.60
2022-10-01T02:02:53.103Z,20.20
2022-10-01T02:05:24.519Z,21.13
2022-10-01T02:08:07.473Z,18.40
2022-10-01T02:10:43.119Z,17.92
2022-10-01T02:13:29.039Z,21.60
2022-10-01T02:16:04.368Z,22.25
2022-10-01T02:18:40.488Z,22.17
2022-10-01T02:21:12.814Z,20.27
2022-10-01T02:23:54.187Z,18.75
2022-10-01T02:26:23.037Z,22.73
2022-10-01T02:28:53.916Z,25.52
2022-10-01T02:31:22.830Z,21.98
2022-10-01T02:36:17.112Z,22.67
2022-10-01T02:38:45.156Z,20.05
2022-10-01T02:41:14.826Z,23.38
2022-10-01T02:43:53.857Z,23.25
2022-10-01T02:46:36.467Z,21.75
2022-10-01T02:49:04.453Z,27.42
2022-10-01T02:51:55.206Z,25.77
2022-10-01T02:55:00.638Z,21.58
2022-10-01T02:57:29.069Z,25.20
2022-10-01T02:59:59.235Z,23.77
2022-10-01T03:02:28.152Z,24.23
2022-10-01T03:04:56.954Z,23.00
2022-10-01T03:07:28.042Z,23.90
2022-10-01T03:09:54.891Z,24.88
2022-10-01T03:12:22.591Z,21.60
2022-10-01T03:14:49.931Z,24.80
2022-10-01T03:17:16.981Z,22.33
2022-10-01T03:19:44.130Z,23.55
2022-10-01T03:22:13.154Z,23.25
2022-10-01T03:27:06.747Z,21.70
2022-10-01T03:29:33.419Z,24.40
2022-10-01T03:32:00.207Z,21.33
2022-10-01T03:34:27.037Z,20.20
2022-10-01T03:36:53.709Z,20.08
2022-10-01T03:39:20.403Z,16.90
2022-10-01T03:41:47.224Z,13.90
2022-10-01T03:44:14.028Z,16.33
2022-10-01T03:46:59.265Z,15.93
2022-10-01T03:49:25.975Z,18.58
2022-10-01T03:51:52.642Z,16.85
2022-10-01T03:54:20.414Z,16.05
2022-10-01T03:56:47.560Z,15.50
2022-10-01T03:59:14.686Z,15.88
2022-10-01T04:01:41.459Z,15.20
2022-10-01T04:04:08.131Z,18.95
2022-10-01T04:06:34.816Z,19.77
2022-10-01T04:09:01.569Z,20.92
2022-10-01T04:11:28.305Z,18.02
2022-10-01T04:13:55.347Z,14.30
2022-10-01T04:16:22.151Z,13.13
2022-10-01T04:18:48.914Z,11.68
2022-10-01T04:21:15.789Z,12.30
2022-10-01T04:23:42.425Z,11.32
2022-10-01T04:26:09.315Z,12.88
2022-10-01T04:28:35.939Z,10.90
2022-10-01T04:31:21.333Z,11.88
2022-10-01T04:33:48.094Z,12.48
2022-10-01T04:36:15.029Z,12.77
2022-10-01T04:38:41.722Z,15.23
2022-10-01T04:41:09.339Z,11.45
2022-10-01T04:43:36.590Z,14.20
2022-10-01T04:46:03.241Z,13.43
2022-10-01T04:48:29.972Z,14.10
2022-10-01T04:50:56.658Z,12.18
2022-10-01T04:53:23.421Z,13.18
2022-10-01T04:55:50.052Z,12.20
2022-10-01T04:58:17.333Z,12.32
2022-10-01T05:00:44.265Z,14.77
2022-10-01T05:03:10.991Z,11.00
2022-10-01T05:05:37.652Z,11.93
2022-10-01T05:08:04.422Z,10.57
2022-10-01T05:10:31.461Z,13.15
2022-10-01T05:13:01.287Z,10.88
2022-10-01T05:15:47.505Z,12.02
2022-10-01T05:18:14.168Z,11.93
2022-10-01T05:20:40.803Z,13.30
2022-10-01T05:23:07.575Z,13.40
2022-10-01T05:25:35.486Z,13.80
2022-10-01T05:28:05.414Z,14.07
2022-10-01T05:30:33.422Z,16.15
2022-10-01T05:33:02.287Z,12.73
2022-10-01T05:35:29.358Z,12.40
2022-10-01T05:37:57.664Z,10.30
2022-10-01T05:40:27.432Z,13.88
2022-10-01T05:42:55.861Z,10.52
2022-10-01T05:45:23.415Z,12.93
2022-10-01T05:47:59.872Z,10.13
2022-10-01T05:50:27.285Z,12.25
2022-10-01T05:52:54.777Z,9.77
2022-10-01T05:55:22.347Z,13.25
2022-10-01T05:57:57.100Z,11.40
2022-10-01T06:00:24.369Z,10.23
2022-10-01T06:02:52.800Z,13.23
2022-10-01T06:05:20.430Z,10.45
2022-10-01T06:07:47.843Z,12.43
2022-10-01T06:10:14.661Z,11.40
2022-10-01T06:12:43.257Z,14.18
2022-10-01T06:15:10.790Z,18.98
2022-10-01T06:17:43.812Z,23.35
2022-10-01T06:20:14.991Z,21.50
2022-10-01T06:22:43.164Z,19.20
2022-10-01T06:25:15.663Z,22.33
2022-10-01T06:27:42.407Z,17.95
2022-10-01T06:30:09.687Z,17.13
2022-10-01T06:32:36.446Z,20.17
2022-10-01T06:35:03.959Z,17.17
2022-10-01T06:37:30.684Z,20.20
2022-10-01T06:39:57.384Z,16.02
2022-10-01T06:42:24.163Z,16.65
2022-10-01T06:44:50.804Z,17.50
2022-10-01T06:47:17.428Z,17.65
2022-10-01T06:49:47.453Z,17.27
2022-10-01T06:52:32.790Z,17.42
2022-10-01T06:55:01.578Z,18.27
2022-10-01T06:57:28.897Z,19.23
2022-10-01T06:59:55.888Z,16.92
2022-10-01T07:02:30.394Z,15.38
2022-10-01T07:05:00.175Z,15.85
2022-10-01T07:07:31.150Z,18.38
2022-10-01T07:10:01.873Z,17.35
2022-10-01T07:12:28.585Z,14.18
2022-10-01T07:14:55.373Z,14.10
2022-10-01T07:17:22.842Z,11.75
2022-10-01T07:19:49.541Z,11.65
2022-10-01T07:22:18.054Z,12.23
2022-10-01T07:24:45.024Z,13.82
2022-10-01T07:27:12.074Z,10.50
2022-10-01T07:29:38.746Z,11.50
2022-10-01T07:32:08.883Z,14.32
2022-10-01T07:34:37.429Z,9.43
2022-10-01T07:37:04.466Z,8.23
2022-10-01T07:39:31.146Z,6.20
2022-10-01T07:41:58.985Z,6.40
2022-10-01T07:44:27.830Z,5.30
2022-10-01T07:46:54.586Z,6.43
2022-10-01T07:49:21.347Z,3.65
2022-10-01T07:51:48.878Z,2.90
2022-10-01T07:54:15.755Z,2.63
2022-10-01T07:56:42.493Z,3.97
2022-10-01T07:59:10.776Z,3.17
2022-10-01T08:01:38.334Z,2.95
2022-10-01T08:04:25.699Z,4.57
2022-10-01T08:06:53.405Z,3.53
2022-10-01T08:09:20.849Z,3.85
2022-10-01T08:11:48.437Z,4.45
2022-10-01T08:14:15.520Z,4.18
2022-10-01T08:16:42.299Z,4.63
2022-10-01T08:19:09.209Z,3.80
2022-10-01T08:21:36.573Z,3.38
2022-10-01T08:24:04.359Z,4.03
2022-10-01T08:26:31.734Z,4.25
2022-10-01T08:28:58.430Z,3.75
2022-10-01T08:31:25.661Z,3.63
2022-10-01T08:33:52.896Z,3.90
2022-10-01T08:36:20.307Z,4.43
2022-10-01T08:38:47.637Z,3.65
2022-10-01T08:41:35.123Z,4.22
2022-10-01T08:44:04.213Z,4.85
2022-10-01T08:46:35.168Z,3.05
2022-10-01T08:49:20.807Z,3.25
2022-10-01T08:52:10.892Z,3.05
2022-10-01T08:55:00.728Z,3.28
2022-10-01T08:57:34.824Z,3.92
2022-10-01T09:00:08.457Z,3.13
2022-10-01T09:02:42.812Z,4.30
2022-10-01T09:05:24.822Z,4.05
2022-10-01T09:08:03.786Z,3.20
2022-10-01T09:10:43.433Z,3.65
2022-10-01T09:13:15.722Z,2.67
2022-10-01T09:15:59.851Z,3.58
2022-10-01T09:18:35.488Z,2.67
2022-10-01T09:21:02.915Z,2.92
2022-10-01T09:23:32.125Z,3.45
2022-10-01T09:26:02.293Z,3.00
2022-10-01T09:28:35.538Z,4.38
2022-10-01T09:31:23.846Z,5.07
2022-10-01T09:34:11.170Z,4.97
2022-10-01T09:36:42.737Z,3.45
2022-10-01T09:39:13.278Z,3.67
2022-10-01T09:41:39.956Z,4.00
2022-10-01T09:44:18.479Z,6.28
2022-10-01T09:46:46.417Z,4.13
2022-10-01T09:49:48.988Z,5.78
2022-10-01T09:52:28.344Z,7.30
2022-10-01T09:55:13.439Z,4.18
2022-10-01T09:58:09.345Z,3.92
2022-10-01T10:00:37.117Z,4.60
2022-10-01T10:03:03.984Z,3.08
2022-10-01T10:05:40.650Z,4.57
2022-10-01T10:08:40.174Z,4.57
2022-10-01T10:11:10.510Z,4.63
2022-10-01T10:13:40.245Z,4.78
2022-10-01T10:16:18.493Z,3.85
2022-10-01T10:18:52.130Z,4.00
2022-10-01T10:21:22.074Z,4.13
2022-10-01T10:23:50.520Z,4.45
2022-10-01T10:26:32.685Z,3.65
2022-10-01T10:29:02.258Z,4.35
2022-10-01T10:31:38.590Z,3.08
2022-10-01T10:34:13.254Z,7.10
2022-10-01T10:36:40.811Z,3.85
2022-10-01T10:39:20.229Z,3.22
2022-10-01T10:41:48.245Z,4.40
2022-10-01T10:44:16.573Z,2.92
2022-10-01T10:46:46.300Z,3.17
2022-10-01T10:49:30.124Z,3.13
2022-10-01T10:52:01.442Z,4.80
2022-10-01T10:54:38.077Z,2.88
2022-10-01T10:57:24.043Z,3.40
2022-10-01T10:59:59.223Z,3.55
2022-10-01T11:02:31.525Z,3.22
2022-10-01T11:05:01.592Z,3.15
2022-10-01T11:07:28.896Z,6.43
2022-10-01T11:10:25.834Z,4.65
2022-10-01T11:13:18.611Z,3.65
2022-10-01T11:16:04.062Z,3.45
2022-10-01T11:19:04.734Z,3.25
2022-10-01T11:22:01.977Z,4.38
2022-10-01T11:24:47.378Z,3.38
2022-10-01T11:27:28.724Z,4.20
2022-10-01T11:30:04.205Z,5.00
2022-10-01T11:32:45.490Z,4.85
2022-10-01T11:35:26.985Z,3.55
2022-10-01T11:38:06.690Z,3.60
2022-10-01T11:40:39.302Z,4.70
2022-10-01T11:43:16.531Z,4.97
2022-10-01T11:45:49.532Z,3.00
2022-10-01T11:48:25.960Z,3.50
2022-10-01T11:50:54.626Z,4.15
2022-10-01T11:56:26.627Z,3.83
2022-10-01T11:59:00.611Z,3.50
2022-10-01T12:01:42.981Z,4.55
2022-10-01T12:04:34.925Z,4.97
2022-10-01T12:07:22.310Z,5.65
2022-10-01T12:09:55.168Z,5.03
2022-10-01T12:12:47.612Z,4.35
2022-10-01T12:15:31.822Z,5.35
2022-10-01T12:18:10.500Z,3.92
2022-10-01T12:20:46.896Z,4.18
2022-10-01T12:23:18.061Z,4.93
2022-10-01T12:26:22.756Z,3.90
2022-10-01T12:28:59.955Z,4.28
2022-10-01T12:31:45.704Z,3.92
2022-10-01T12:34:30.937Z,4.25
2022-10-01T12:37:04.448Z,4.45
2022-10-01T12:39:44.035Z,4.07
2022-10-01T12:42:16.786Z,4.60
2022-10-01T12:45:06.353Z,4.10
2022-10-01T12:47:36.563Z,5.40
2022-10-01T12:50:06.349Z,3.67
2022-10-01T12:52:54.850Z,4.65
2022-10-01T12:55:56.598Z,3.50
2022-10-01T12:58:25.871Z,4.88
2022-10-01T13:01:03.024Z,4.03
2022-10-01T13:04:03.769Z,4.88
2022-10-01T13:06:58.540Z,4.18
2022-10-01T13:09:52.811Z,3.90
2022-10-01T13:12:38.162Z,5.00
2022-10-01T13:15:06.813Z,3.22
2022-10-01T13:17:43.446Z,3.72
2022-10-01T13:20:27.030Z,3.80
2022-10-01T13:23:09.149Z,4.22
2022-10-01T13:26:00.563Z,3.63
2022-10-01T13:28:40.382Z,4.75
2022-10-01T13:31:15.842Z,5.47
2022-10-01T13:33:42.536Z,5.47
2022-10-01T13:36:10.678Z,4.80
2022-10-01T13:38:44.482Z,4.50
2022-10-01T13:41:23.198Z,4.03
2022-10-01T13:43:59.779Z,4.25
2022-10-01T13:46:31.314Z,5.82
2022-10-01T13:49:21.542Z,4.32
2022-10-01T13:51:48.341Z,4.13
2022-10-01T13:54:47.936Z,4.75
2022-10-01T13:57:38.105Z,4.38
2022-10-01T14:00:16.936Z,4.25
2022-10-01T14:02:45.703Z,4.72
2022-10-01T14:07:55.323Z,5.18
2022-10-01T14:10:22.585Z,4.35
2022-10-01T14:13:08.145Z,5.18
2022-10-01T14:16:00.192Z,4.97
2022-10-01T14:18:30.739Z,4.47
2022-10-01T14:21:31.488Z,5.05
2022-10-01T14:24:15.134Z,5.60
2022-10-01T14:26:44.330Z,5.57
2022-10-01T14:29:38.807Z,7.32
2022-10-01T14:32:35.582Z,7.60
2022-10-01T14:35:39.772Z,6.70
2022-10-01T14:38:15.052Z,7.15
2022-10-01T14:40:43.307Z,8.27
2022-10-01T14:43:30.535Z,5.72
2022-10-01T14:48:33.059Z,6.90
2022-10-01T14:51:05.746Z,5.88
2022-10-01T14:53:34.597Z,7.15
2022-10-01T14:58:32.851Z,7.38
2022-10-01T15:01:00.476Z,6.05
2022-10-01T15:03:27.316Z,6.80
2022-10-01T15:06:03.792Z,7.25
2022-10-01T15:08:43.858Z,6.60
2022-10-01T15:11:18.019Z,6.45
2022-10-01T15:13:46.026Z,8.20
2022-10-01T15:16:15.355Z,6.65
2022-10-01T15:19:23.043Z,7.32
2022-10-01T15:21:55.414Z,5.93
2022-10-01T15:24:37.601Z,8.35
2022-10-01T15:27:04.482Z,7.90
2022-10-01T15:29:31.188Z,7.82
2022-10-01T15:31:58.605Z,5.10
2022-10-01T15:34:26.516Z,14.15
2022-10-01T15:36:53.898Z,7.10
2022-10-01T15:39:33.555Z,9.93
2022-10-01T15:42:08.780Z,18.45
2022-10-01T15:44:50.028Z,8.13
2022-10-01T15:47:19.793Z,15.18
2022-10-01T15:50:11.341Z,25.02
2022-10-01T15:53:08.715Z,8.35
2022-10-01T15:55:39.069Z,16.40
2022-10-01T15:58:08.899Z,12.45
2022-10-01T16:00:48.866Z,8.13
2022-10-01T16:03:27.434Z,6.50
2022-10-01T16:05:55.124Z,8.05
2022-10-01T16:08:24.451Z,6.50
2022-10-01T16:11:17.985Z,11.88
2022-10-01T16:13:50.576Z,5.95
2022-10-01T16:16:26.076Z,6.97
2022-10-01T16:19:19.648Z,7.57
2022-10-01T16:22:21.022Z,7.32
2022-10-01T16:24:56.037Z,7.45
2022-10-01T16:30:21.329Z,8.68
2022-10-01T16:32:48.322Z,9.77
2022-10-01T16:35:15.295Z,9.02
2022-10-01T16:37:42.261Z,8.25
2022-10-01T16:40:13.917Z,6.88
2022-10-01T16:42:43.024Z,17.15
2022-10-01T16:45:15.928Z,6.75
2022-10-01T16:47:42.852Z,7.45
2022-10-01T16:50:15.165Z,8.20
2022-10-01T16:52:42.107Z,6.93
2022-10-01T16:55:32.362Z,5.93
2022-10-01T16:57:59.020Z,10.35
2022-10-01T17:00:27.909Z,6.40
2022-10-01T17:02:55.894Z,8.25
2022-10-01T17:05:31.092Z,7.38
2022-10-01T17:08:00.943Z,7.28
2022-10-01T17:10:32.695Z,7.28
2022-10-01T17:12:59.730Z,7.30
2022-10-01T17:15:27.828Z,6.70
2022-10-01T17:17:56.036Z,7.78
2022-10-01T17:20:24.106Z,6.85
2022-10-01T17:22:51.854Z,9.23
2022-10-01T17:25:21.418Z,7.93
2022-10-01T17:27:48.062Z,8.43
2022-10-01T17:30:14.947Z,7.50
2022-10-01T17:32:43.041Z,9.10
2022-10-01T17:35:11.187Z,9.23
2022-10-01T17:37:38.093Z,10.10
2022-10-01T17:40:06.303Z,12.10
2022-10-01T17:42:34.635Z,10.05
2022-10-01T17:45:07.196Z,7.88
2022-10-01T17:47:33.958Z,7.18
2022-10-01T17:50:00.742Z,9.57
2022-10-01T17:52:27.459Z,9.32
2022-10-01T17:54:54.073Z,9.40
2022-10-01T17:57:20.987Z,8.50
2022-10-01T17:59:47.678Z,10.27
2022-10-01T18:02:39.748Z,9.23
2022-10-01T18:05:03.630Z,16.38
2022-10-01T18:07:30.303Z,10.07
2022-10-01T18:09:56.903Z,9.32
2022-10-01T18:12:23.588Z,8.02
2022-10-01T18:14:50.230Z,10.43
2022-10-01T18:17:16.947Z,12.10
2022-10-01T18:19:53.263Z,11.88
2022-10-01T18:22:20.228Z,10.80
2022-10-01T18:24:47.192Z,11.82
2022-10-01T18:27:14.020Z,12.20
2022-10-01T18:29:40.802Z,19.13
2022-10-01T18:32:19.752Z,11.55
2022-10-01T18:34:52.927Z,13.55
2022-10-01T18:37:30.413Z,12.38
2022-10-01T18:40:02.131Z,11.95
2022-10-01T18:42:45.169Z,13.43
2022-10-01T18:45:49.571Z,10.13
2022-10-01T18:48:39.184Z,10.35
2022-10-01T18:51:11.723Z,12.88
2022-10-01T18:53:56.737Z,11.45
2022-10-01T18:56:32.213Z,14.23
2022-10-01T18:59:04.077Z,11.88
2022-10-01T19:02:02.379Z,14.63
2022-10-01T19:04:47.907Z,17.08
2022-10-01T19:07:52.282Z,25.02
2022-10-01T19:10:42.540Z,20.05
2022-10-01T19:13:13.874Z,12.15
2022-10-01T19:16:03.608Z,13.77
2022-10-01T19:18:42.126Z,12.77
2022-10-01T19:21:33.447Z,13.52
2022-10-01T19:24:19.228Z,12.32
2022-10-01T19:27:02.940Z,12.80
2022-10-01T19:30:06.195Z,20.02
2022-10-01T19:32:58.285Z,12.18
2022-10-01T19:35:32.150Z,11.48
2022-10-01T19:38:07.192Z,11.65
2022-10-01T19:43:22.731Z,12.07
2022-10-01T19:46:06.305Z,13.65
2022-10-01T19:48:48.116Z,14.30
2022-10-01T19:51:18.796Z,10.57
2022-10-01T19:53:48.628Z,11.75
2022-10-01T19:56:25.612Z,11.50
2022-10-01T19:58:52.260Z,11.73
2022-10-01T20:01:21.730Z,18.02
2022-10-01T20:04:01.191Z,15.55
2022-10-01T20:06:34.167Z,20.48
2022-10-01T20:09:13.809Z,19.27
2022-10-01T20:12:01.466Z,19.08
2022-10-01T20:15:10.048Z,18.80
2022-10-01T20:17:57.988Z,23.70
2022-10-01T20:20:43.630Z,18.42
2022-10-01T20:23:28.848Z,16.98
2022-10-01T20:26:40.022Z,20.20
2022-10-01T20:29:18.497Z,20.17
2022-10-01T20:31:59.481Z,19.30
2022-10-01T20:34:27.656Z,18.42
2022-10-01T20:37:22.694Z,18.33
2022-10-01T20:39:53.941Z,13.70
2022-10-01T20:42:34.298Z,16.13
2022-10-01T20:45:02.079Z,17.92
2022-10-01T20:47:42.013Z,15.63
2022-10-01T20:50:19.848Z,15.30
2022-10-01T20:53:10.082Z,16.23
2022-10-01T20:55:41.067Z,14.57
2022-10-01T20:58:23.744Z,14.57
2022-10-01T21:00:54.871Z,9.18
2022-10-01T21:03:30.405Z,9.95
2022-10-01T21:06:07.542Z,9.63
2022-10-01T21:08:46.538Z,9.50
2022-10-01T21:11:19.787Z,9.52
2022-10-01T21:13:56.295Z,12.07
2022-10-01T21:16:25.911Z,8.13
2022-10-01T21:19:32.856Z,9.68
2022-10-01T21:22:21.935Z,12.35
2022-10-01T21:25:00.751Z,12.65
2022-10-01T21:27:48.773Z,11.32
2022-10-01T21:30:20.265Z,11.77
2022-10-01T21:33:06.734Z,11.13
2022-10-01T21:35:51.297Z,28.80
2022-10-01T21:38:51.871Z,10.13
2022-10-01T21:42:01.764Z,14.95
2022-10-01T21:44:31.206Z,11.52
2022-10-01T21:47:05.448Z,16.30
2022-10-01T21:49:50.855Z,13.38
2022-10-01T21:52:35.060Z,28.90
2022-10-01T21:55:09.997Z,20.02
2022-10-01T21:58:15.216Z,14.90
2022-10-01T22:00:41.973Z,15.35
2022-10-01T22:03:27.931Z,16.50
2022-10-01T22:06:07.241Z,16.08
2022-10-01T22:08:52.990Z,16.25
2022-10-01T22:11:25.657Z,16.02
2022-10-01T22:14:02.291Z,16.42
2022-10-01T22:16:33.384Z,15.27
2022-10-01T22:19:21.414Z,13.93
2022-10-01T22:21:56.579Z,14.82
2022-10-01T22:27:16.067Z,14.45
2022-10-01T22:29:46.496Z,12.60
2022-10-01T22:32:16.542Z,13.77
2022-10-01T22:34:49.407Z,14.73
2022-10-01T22:37:33.739Z,15.00
2022-10-01T22:40:34.772Z,14.55
2022-10-01T22:43:12.373Z,13.52
2022-10-01T22:45:54.438Z,14.07
2022-10-01T22:48:27.429Z,14.02
2022-10-01T22:51:29.196Z,11.43
2022-10-01T22:54:04.813Z,13.48
2022-10-01T22:57:05.357Z,18.63
2022-10-01T22:59:47.131Z,13.15
2022-10-01T23:02:34.778Z,12.60
2022-10-01T23:05:13.356Z,12.93
2022-10-01T23:07:58.513Z,10.70
2022-10-01T23:10:59.459Z,10.88
2022-10-01T23:13:49.312Z,13.30
2022-10-01T23:16:24.729Z,18.90
2022-10-01T23:18:54.534Z,12.40
2022-10-01T23:21:52.247Z,10.38
2022-10-01T23:24:38.166Z,10.15
2022-10-01T23:27:32.558Z,8.45
2022-10-01T23:30:02.262Z,10.15
2022-10-01T23:32:47.505Z,11.32
2022-10-01T23:35:19.113Z,10.63
2022-10-01T23:38:04.654Z,9.35
2022-10-01T23:40:34.146Z,10.60
2022-10-01T23:43:25.695Z,10.73
2022-10-01T23:46:12.257Z,10.65
2022-10-01T23:48:41.776Z,9.15
2022-10-01T23:51:22.933Z,7.78
2022-10-01T23:56:47.060Z,5.38
2022-10-01T23:59:31.712Z,4.40
